This demonstration page uses our WeatherBlox Daily Observations layout. Learn more.

36.17497, -115.13722

Hourly Observations for June 11, 2018

Temp ( °F °C ) Dew Point ( °F °C ) Humidity (%) Winds ( mph kmh ) Pressure ( in mb ) Visibility ( mi km ) Precip ( " mm )
12:53 am 00:53 Clear 84 28.9 8 -13.3 5 5 N 12 19 29.71 1006 10 16.09344 0 0
1:53 am 01:53 Clear 82 27.8 12 -11.1 7 7 W 7 11 29.74 1007 10 16.09344 0 0
2:53 am 02:53 Clear 82 27.8 11 -11.7 7 7 NNW 13 20 29.71 1006 10 16.09344 0 0
3:53 am 03:53 Clear 79 26.1 13 -10.6 8 8 NW 10 17 29.74 1007 10 16.09344 0 0
4:53 am 04:53 Clear 81 27.2 13 -10.6 7 7 NNW 12 19 29.74 1007 10 16.09344 0 0
5:53 am 05:53 Sunny 80 26.7 14 -10 8 8 NNW 12 19 29.77 1008 10 16.09344 0 0
6:53 am 06:53 Sunny 81 27.2 15 -9.4 8 8 NNW 6 9 29.8 1009 10 16.09344 0 0
7:53 am 07:53 Sunny 84 28.9 16 -8.9 8 8 NNW 10 17 29.8 1009 10 16.09344 0 0
8:53 am 08:53 Sunny 87 30.6 16 -8.9 7 7 NW 8 13 29.8 1009 10 16.09344 0 0
9:53 am 09:53 Sunny 89 31.7 16 -8.9 7 7 SSE 6 9 29.8 1009 10 16.09344 0 0
10:53 am 10:53 Sunny 92 33.3 13 -10.6 5 5 N 3 6 29.8 1009 10 16.09344 0 0
11:53 am 11:53 Sunny 93 33.9 13 -10.6 5 5 N 6 9 29.8 1009 10 16.09344 0 0
12:53 pm 12:53 Sunny 95 35 13 -10.6 5 5 undefined N/A 29.77 1008 10 16.09344 0 0
1:53 pm 13:53 Sunny 97 36.1 15 -9.4 5 5 SSW 8 13 29.74 1007 10 16.09344 0 0
2:53 pm 14:53 Sunny 99 37.2 14 -10 4 4 N 6 9 29.71 1006 10 16.09344 0 0
3:53 pm 15:53 Sunny 100 37.8 14 -10 4 4 S 14 22 29.68 1005 10 16.09344 0 0
4:53 pm 16:53 Sunny 101 38.3 15 -9.4 4 4 S 10 17 29.68 1005 10 16.09344 0 0
5:53 pm 17:53 Sunny 100 37.8 16 -8.9 5 5 SSE 9 15 29.65 1004 10 16.09344 0 0
6:53 pm 18:53 Sunny 100 37.8 18 -7.8 5 5 SE 10 17 29.65 1004 10 16.09344 0 0
7:53 pm 19:53 Sunny 98 36.7 20 -6.7 6 6 ESE 8 13 29.68 1005 10 16.09344 0 0
8:53 pm 20:53 Clear 95 35 23 -5 7 7 SE 8 13 29.68 1005 10 16.09344 0 0
9:53 pm 21:53 Clear 91 32.8 24 -4.4 9 9 E 7 11 29.71 1006 10 16.09344 0 0
10:53 pm 22:53 Clear 89 31.7 26 -3.3 10 10 NW 6 9 29.71 1006 10 16.09344 0 0
11:53 pm 23:53 Clear 86 30 28 -2.2 12 12 NNW 6 9 29.71 1006 10 16.09344 0 0

Powered by AerisWeather